Time;durP1;ratioP1;P1;durP2;ratioP2;P2;SDS_P1;SDS_P2;PMS_P1;PMS_P2;Temp;Humidity;BMP_temperature;BMP_pressure;BME280_temperature;BME280_humidity;BME280_pressure;Samples;Min_cycle;Max_cycle;Signal;HPM_P1;HPM_P2
2022/12/23 00:04:37;;;;;;;13.13;9.67;;;;;;;;;;10363064;28;20040;-60
2022/12/23 00:09:37;;;;;;;15.80;9.50;;;;;;;;;;10367350;28;20034;-61
2022/12/23 00:19:56;;;;;;;13.32;8.60;;;;;;;;;;10354276;28;20041;-61
2022/12/23 00:24:56;;;;;;;14.57;9.25;;;;;;;;;;10341958;28;20042;-60
2022/12/23 00:29:56;;;;;;;12.93;8.88;;;;;;;;;;10365302;28;20042;-60
2022/12/23 00:34:57;;;;;;;13.20;9.77;;;;;;;;;;10365816;28;20038;-60
2022/12/23 00:45:16;;;;;;;12.95;9.35;;;;;;;;;;10353290;28;20034;-61
2022/12/23 00:50:16;;;;;;;12.53;8.50;;;;;;;;;;10354259;28;20026;-61
2022/12/23 00:55:16;;;;;;;11.73;8.40;;;;;;;;;;10353521;28;20037;-61
2022/12/23 01:00:17;;;;;;;17.70;8.77;;;;;;;;;;10344979;28;20026;-61
2022/12/23 01:05:35;;;;;;;12.85;8.82;;;;;;;;;;10351965;28;20030;-60
2022/12/23 01:10:36;;;;;;;12.20;8.73;;;;;;;;;;10359474;28;20027;-60
2022/12/23 01:15:37;;;;;;;15.45;9.75;;;;;;;;;;10358699;28;20512;-60
2022/12/23 01:20:37;;;;;;;11.98;8.32;;;;;;;;;;10364270;28;20105;-60
2022/12/23 01:25:38;;;;;;;12.68;9.07;;;;;;;;;;10360692;28;20025;-60
2022/12/23 01:30:38;;;;;;;11.40;8.57;;;;;;;;;;10352473;28;20025;-60
2022/12/23 01:35:38;;;;;;;13.07;8.60;;;;;;;;;;10328533;28;20026;-60
2022/12/23 01:40:39;;;;;;;11.43;8.27;;;;;;;;;;10352536;28;20488;-61
2022/12/23 01:45:40;;;;;;;15.25;8.50;;;;;;;;;;10349411;28;20469;-60
2022/12/23 01:50:55;;;;;;;16.48;8.35;;;;;;;;;;10336539;28;20077;-60
2022/12/23 01:55:58;;;;;;;13.50;8.73;;;;;;;;;;10364529;28;20366;-60
2022/12/23 02:11:41;;;;;;;10.23;7.60;;;;;;;;;;10351769;28;20026;-60
2022/12/23 02:16:45;;;;;;;11.20;8.48;;;;;;;;;;10351877;28;20023;-60
2022/12/23 02:21:56;;;;;;;12.32;8.05;;;;;;;;;;10359199;28;20470;-60
2022/12/23 02:27:15;;;;;;;11.50;8.40;;;;;;;;;;10357392;28;20046;-60
2022/12/23 02:32:41;;;;;;;13.77;9.40;;;;;;;;;;10357552;28;20026;-60
2022/12/23 02:38:03;;;;;;;7.97;6.95;;;;;;;;;;10370505;28;20018;-60
2022/12/23 02:43:05;;;;;;;10.85;7.57;;;;;;;;;;10357214;28;20034;-61
2022/12/23 02:48:09;;;;;;;10.38;7.43;;;;;;;;;;10357538;28;20088;-61
2022/12/23 02:53:32;;;;;;;11.77;7.82;;;;;;;;;;10364280;28;20025;-61
2022/12/23 02:58:35;;;;;;;9.90;7.78;;;;;;;;;;10352273;28;20084;-61
2022/12/23 03:03:35;;;;;;;10.63;7.85;;;;;;;;;;10370120;28;20517;-61
2022/12/23 03:08:40;;;;;;;9.63;7.30;;;;;;;;;;10350892;28;20038;-61
2022/12/23 03:14:00;;;;;;;10.00;8.35;;;;;;;;;;10338619;28;20025;-61
2022/12/23 03:19:12;;;;;;;9.00;7.47;;;;;;;;;;10356784;28;20069;-61
2022/12/23 03:24:15;;;;;;;10.48;7.85;;;;;;;;;;10368565;28;20045;-60
2022/12/23 03:29:19;;;;;;;9.82;7.72;;;;;;;;;;10369102;28;20046;-61
2022/12/23 03:34:22;;;;;;;9.73;7.82;;;;;;;;;;10353916;28;20033;-60
2022/12/23 03:39:25;;;;;;;9.65;7.32;;;;;;;;;;10352221;28;20034;-60
2022/12/23 03:44:31;;;;;;;10.75;7.30;;;;;;;;;;10367779;28;20105;-60
2022/12/23 03:49:35;;;;;;;9.90;7.43;;;;;;;;;;10368922;28;20032;-60
2022/12/23 03:54:40;;;;;;;10.77;7.85;;;;;;;;;;10367309;28;20033;-60
2022/12/23 03:59:42;;;;;;;9.82;7.63;;;;;;;;;;10368622;28;20083;-60
2022/12/23 04:04:52;;;;;;;9.13;7.10;;;;;;;;;;10347409;28;20030;-60
2022/12/23 04:09:53;;;;;;;8.65;6.93;;;;;;;;;;10339306;28;20325;-60
2022/12/23 04:14:53;;;;;;;7.90;6.50;;;;;;;;;;10354743;28;20319;-60
2022/12/23 04:19:54;;;;;;;9.48;6.90;;;;;;;;;;10354466;28;20038;-60
2022/12/23 04:24:54;;;;;;;11.48;7.40;;;;;;;;;;10353909;28;20397;-60
2022/12/23 04:29:54;;;;;;;8.75;6.38;;;;;;;;;;10360865;28;20045;-60
2022/12/23 04:34:54;;;;;;;10.20;7.32;;;;;;;;;;10345423;28;20042;-60
2022/12/23 04:39:55;;;;;;;9.27;7.05;;;;;;;;;;10367133;28;20497;-60
2022/12/23 04:44:55;;;;;;;9.33;6.57;;;;;;;;;;10366509;28;20425;-60
2022/12/23 04:49:55;;;;;;;9.65;6.75;;;;;;;;;;10343805;28;20034;-60
2022/12/23 04:54:55;;;;;;;8.50;6.70;;;;;;;;;;10362978;28;20389;-60
2022/12/23 04:59:56;;;;;;;8.80;6.90;;;;;;;;;;10355919;28;20030;-60
2022/12/23 05:04:56;;;;;;;8.55;6.38;;;;;;;;;;10353167;28;20041;-61
2022/12/23 05:10:00;;;;;;;13.10;7.20;;;;;;;;;;10343201;28;20042;-61
2022/12/23 05:15:00;;;;;;;8.57;6.55;;;;;;;;;;10362448;28;20471;-61
2022/12/23 05:20:01;;;;;;;8.63;6.85;;;;;;;;;;10365002;28;20141;-61
2022/12/23 05:25:01;;;;;;;8.00;6.45;;;;;;;;;;10364507;28;20554;-61
2022/12/23 05:30:01;;;;;;;8.93;6.68;;;;;;;;;;10351006;28;20398;-61
2022/12/23 05:35:02;;;;;;;7.57;6.07;;;;;;;;;;10361470;28;20619;-60
2022/12/23 05:40:02;;;;;;;7.75;6.68;;;;;;;;;;10364513;28;20088;-61
2022/12/23 05:45:03;;;;;;;9.07;6.65;;;;;;;;;;10326801;28;20054;-61
2022/12/23 05:50:03;;;;;;;9.38;6.82;;;;;;;;;;10350607;28;20038;-60
2022/12/23 05:55:04;;;;;;;8.07;6.47;;;;;;;;;;10353825;28;20105;-61
2022/12/23 06:00:04;;;;;;;8.18;6.32;;;;;;;;;;10363196;28;20116;-60
2022/12/23 06:05:05;;;;;;;7.65;6.25;;;;;;;;;;10340023;28;20018;-60
2022/12/23 06:10:06;;;;;;;8.02;5.90;;;;;;;;;;10350592;28;20033;-61
2022/12/23 06:15:12;;;;;;;8.27;6.40;;;;;;;;;;10363325;28;20041;-61
2022/12/23 06:20:12;;;;;;;8.27;6.68;;;;;;;;;;10358825;28;20038;-61
2022/12/23 06:25:13;;;;;;;13.77;6.37;;;;;;;;;;10352826;28;20025;-61
2022/12/23 06:30:14;;;;;;;11.55;6.47;;;;;;;;;;10356806;28;21099;-61
2022/12/23 06:35:14;;;;;;;7.87;6.00;;;;;;;;;;10351751;28;20249;-62
2022/12/23 06:40:15;;;;;;;8.90;6.53;;;;;;;;;;10363429;28;20025;-61
2022/12/23 06:45:15;;;;;;;16.77;6.40;;;;;;;;;;10355536;28;20026;-60
2022/12/23 06:50:15;;;;;;;9.60;6.63;;;;;;;;;;10356709;28;20434;-61
2022/12/23 06:55:16;;;;;;;15.37;6.53;;;;;;;;;;10360987;28;20485;-60
2022/12/23 07:00:16;;;;;;;9.97;7.20;;;;;;;;;;10358464;28;20116;-60
2022/12/23 07:05:16;;;;;;;9.80;7.03;;;;;;;;;;10349360;28;21318;-60
2022/12/23 07:10:17;;;;;;;12.20;8.20;;;;;;;;;;10362788;28;20822;-63
2022/12/23 07:15:17;;;;;;;12.45;7.90;;;;;;;;;;10361033;28;20116;-62
2022/12/23 07:20:17;;;;;;;32.00;8.25;;;;;;;;;;10359142;28;20068;-63
2022/12/23 07:25:17;;;;;;;19.83;8.20;;;;;;;;;;10366340;28;20026;-62
2022/12/23 07:30:18;;;;;;;15.73;8.37;;;;;;;;;;10363949;28;20056;-61
2022/12/23 07:35:18;;;;;;;17.10;8.70;;;;;;;;;;10368448;28;20112;-62
2022/12/23 07:40:18;;;;;;;12.30;8.03;;;;;;;;;;10369260;28;20049;-62
2022/12/23 07:45:18;;;;;;;16.85;9.00;;;;;;;;;;10368545;28;20394;-62
2022/12/23 07:50:19;;;;;;;14.32;8.70;;;;;;;;;;10369480;28;20437;-61
2022/12/23 07:55:20;;;;;;;13.75;8.93;;;;;;;;;;10367815;28;20386;-62
2022/12/23 08:00:20;;;;;;;17.10;8.18;;;;;;;;;;10367043;28;20038;-63
2022/12/23 08:05:21;;;;;;;16.73;8.63;;;;;;;;;;10330905;28;20030;-61
2022/12/23 08:10:21;;;;;;;15.00;9.00;;;;;;;;;;10367356;28;20129;-62
2022/12/23 08:15:21;;;;;;;12.20;8.70;;;;;;;;;;10367552;28;20033;-62
2022/12/23 08:20:22;;;;;;;16.60;9.13;;;;;;;;;;10366923;28;20029;-62
2022/12/23 08:25:22;;;;;;;13.27;9.07;;;;;;;;;;10356115;28;20452;-64
2022/12/23 08:30:22;;;;;;;12.43;9.20;;;;;;;;;;10350375;28;21028;-63
2022/12/23 08:35:23;;;;;;;16.87;9.80;;;;;;;;;;10357975;28;20030;-62
2022/12/23 08:40:23;;;;;;;17.20;9.77;;;;;;;;;;10360472;28;20475;-62
2022/12/23 08:45:24;;;;;;;16.33;9.23;;;;;;;;;;10366494;28;20417;-62
2022/12/23 08:50:24;;;;;;;16.27;10.20;;;;;;;;;;10349255;28;20038;-62
2022/12/23 08:55:25;;;;;;;14.82;9.60;;;;;;;;;;10353652;28;20489;-63
2022/12/23 09:00:25;;;;;;;16.23;9.75;;;;;;;;;;10357117;28;20037;-62
2022/12/23 09:05:25;;;;;;;14.40;9.95;;;;;;;;;;10360921;28;20034;-61
2022/12/23 09:10:26;;;;;;;13.45;10.13;;;;;;;;;;10355982;28;20069;-61
2022/12/23 09:15:26;;;;;;;16.55;10.73;;;;;;;;;;10340870;28;20510;-61
2022/12/23 09:20:26;;;;;;;20.60;10.65;;;;;;;;;;10353134;28;20109;-62
2022/12/23 09:25:27;;;;;;;16.98;11.05;;;;;;;;;;10362364;28;20065;-61
2022/12/23 09:30:27;;;;;;;13.32;9.98;;;;;;;;;;10360055;28;20042;-62
2022/12/23 09:35:28;;;;;;;15.90;10.00;;;;;;;;;;10359825;28;20489;-62
2022/12/23 09:40:30;;;;;;;14.10;9.60;;;;;;;;;;10357247;28;20367;-61
2022/12/23 09:45:34;;;;;;;13.48;10.07;;;;;;;;;;10356005;28;20038;-61
2022/12/23 09:50:34;;;;;;;16.73;10.70;;;;;;;;;;10357647;28;20022;-62
2022/12/23 09:55:37;;;;;;;14.37;9.87;;;;;;;;;;10346761;28;20072;-62
2022/12/23 10:00:41;;;;;;;17.33;10.65;;;;;;;;;;10357804;28;20468;-61
2022/12/23 10:05:51;;;;;;;15.63;10.77;;;;;;;;;;10357091;28;20022;-62
2022/12/23 10:10:55;;;;;;;14.20;10.32;;;;;;;;;;10345261;28;20485;-62
2022/12/23 10:16:00;;;;;;;15.43;10.98;;;;;;;;;;10355814;28;20052;-61
2022/12/23 10:21:03;;;;;;;18.27;10.80;;;;;;;;;;10357079;28;20034;-61
2022/12/23 10:26:11;;;;;;;15.90;10.88;;;;;;;;;;10355860;28;20138;-61
2022/12/23 10:31:16;;;;;;;15.50;10.50;;;;;;;;;;10358932;28;20047;-61
2022/12/23 10:36:22;;;;;;;15.00;10.45;;;;;;;;;;10360336;28;20452;-61
2022/12/23 10:41:41;;;;;;;16.98;10.82;;;;;;;;;;10370898;28;20030;-61
2022/12/23 10:47:05;;;;;;;14.93;10.15;;;;;;;;;;10370164;28;20041;-62
2022/12/23 10:52:14;;;;;;;14.88;10.15;;;;;;;;;;10359456;28;20061;-61
2022/12/23 10:57:15;;;;;;;14.98;9.75;;;;;;;;;;10359123;28;20088;-61
2022/12/23 11:02:25;;;;;;;16.77;10.82;;;;;;;;;;10358164;28;20036;-61
2022/12/23 11:07:26;;;;;;;16.00;11.70;;;;;;;;;;10369600;28;20026;-61
2022/12/23 11:12:38;;;;;;;17.80;12.23;;;;;;;;;;10365670;28;20116;-62
2022/12/23 11:17:39;;;;;;;15.60;11.63;;;;;;;;;;10360402;28;20065;-60
2022/12/23 11:22:53;;;;;;;20.23;11.52;;;;;;;;;;10370204;28;20152;-61
2022/12/23 11:27:56;;;;;;;18.15;12.18;;;;;;;;;;10368381;28;20352;-61
2022/12/23 11:32:57;;;;;;;18.27;11.55;;;;;;;;;;10366910;28;20462;-62
2022/12/23 11:37:58;;;;;;;16.50;11.98;;;;;;;;;;10352680;28;20033;-63
2022/12/23 11:43:00;;;;;;;18.15;11.95;;;;;;;;;;10362734;28;20037;-62
2022/12/23 11:48:02;;;;;;;14.82;10.88;;;;;;;;;;10364442;28;20034;-62
2022/12/23 11:53:10;;;;;;;16.95;12.05;;;;;;;;;;10365764;28;20033;-62
2022/12/23 11:58:15;;;;;;;17.80;11.95;;;;;;;;;;10367121;28;20485;-62
2022/12/23 12:03:18;;;;;;;19.10;12.05;;;;;;;;;;10367501;28;20129;-63
2022/12/23 12:08:23;;;;;;;18.50;11.18;;;;;;;;;;10367127;28;20033;-63
2022/12/23 12:13:29;;;;;;;14.80;10.57;;;;;;;;;;10366228;28;20030;-61
2022/12/23 12:18:29;;;;;;;16.25;11.00;;;;;;;;;;10368092;28;20021;-63
2022/12/23 12:23:47;;;;;;;16.27;11.38;;;;;;;;;;10367013;28;20405;-63
2022/12/23 12:28:50;;;;;;;16.45;11.23;;;;;;;;;;10365171;28;20042;-62
2022/12/23 12:34:01;;;;;;;13.60;10.00;;;;;;;;;;10366133;28;20109;-63
2022/12/23 12:39:01;;;;;;;14.40;10.68;;;;;;;;;;10358710;28;20084;-62
2022/12/23 12:44:01;;;;;;;14.73;10.18;;;;;;;;;;10355016;28;20382;-62
2022/12/23 12:49:14;;;;;;;15.75;10.40;;;;;;;;;;10362172;28;20030;-62
2022/12/23 12:54:23;;;;;;;12.82;9.68;;;;;;;;;;10350851;28;20037;-61
2022/12/23 12:59:36;;;;;;;15.23;9.45;;;;;;;;;;10358249;28;20030;-62
2022/12/23 13:04:37;;;;;;;14.98;10.70;;;;;;;;;;10359370;28;20083;-61
2022/12/23 13:09:58;;;;;;;14.63;9.85;;;;;;;;;;10357182;28;20107;-61
2022/12/23 13:15:17;;;;;;;11.55;9.48;;;;;;;;;;10364123;28;20049;-61
2022/12/23 13:20:17;;;;;;;13.10;9.40;;;;;;;;;;10355167;28;20269;-61
2022/12/23 13:25:18;;;;;;;12.65;9.18;;;;;;;;;;10359474;28;20264;-61
2022/12/23 13:30:20;;;;;;;13.63;9.68;;;;;;;;;;10354672;28;20107;-61
2022/12/23 13:35:33;;;;;;;13.30;9.30;;;;;;;;;;10355051;28;20444;-61
2022/12/23 13:40:49;;;;;;;13.23;9.82;;;;;;;;;;10354517;28;20088;-61
2022/12/23 13:45:51;;;;;;;12.30;9.20;;;;;;;;;;10363470;28;20025;-61
2022/12/23 13:50:54;;;;;;;13.65;8.80;;;;;;;;;;10384536;23;20592;-60
2022/12/23 13:55:55;;;;;;;13.98;8.60;;;;;;;;;;10389560;28;20075;-60
2022/12/23 14:01:01;;;;;;;10.82;9.07;;;;;;;;;;10386513;28;20048;-60
2022/12/23 14:06:21;;;;;;;10.73;8.30;;;;;;;;;;10401666;28;20043;-60
2022/12/23 14:11:24;;;;;;;10.90;7.72;;;;;;;;;;10393161;28;20499;-60
2022/12/23 14:16:43;;;;;;;11.55;8.15;;;;;;;;;;10404624;28;20077;-60
2022/12/23 14:22:01;;;;;;;11.65;8.60;;;;;;;;;;10389075;28;20041;-60
2022/12/23 14:27:02;;;;;;;;;;;;;;;;;;10387210;28;20042;-60
2022/12/23 14:32:02;;;;;;;11.70;7.90;;;;;;;;;;10399569;28;19927;-60
2022/12/23 14:37:24;;;;;;;12.00;8.13;;;;;;;;;;10402587;28;20124;-59
2022/12/23 14:42:41;;;;;;;10.15;7.75;;;;;;;;;;10388269;28;20483;-60
2022/12/23 14:47:45;;;;;;;14.32;7.70;;;;;;;;;;10388011;28;20026;-59
2022/12/23 14:52:47;;;;;;;15.38;8.23;;;;;;;;;;10395685;28;20110;-59
2022/12/23 14:57:53;;;;;;;11.85;8.95;;;;;;;;;;10396945;28;20037;-59
2022/12/23 15:02:55;;;;;;;14.43;8.38;;;;;;;;;;10382039;28;20438;-59
2022/12/23 15:07:56;;;;;;;16.48;8.85;;;;;;;;;;10406090;28;20098;-59
2022/12/23 15:12:56;;;;;;;12.83;7.77;;;;;;;;;;10390997;28;20025;-59
2022/12/23 15:18:04;;;;;;;14.90;8.07;;;;;;;;;;10403149;28;20155;-59
2022/12/23 15:23:09;;;;;;;10.43;7.80;;;;;;;;;;10406740;28;20037;-59
2022/12/23 15:28:14;;;;;;;13.43;7.95;;;;;;;;;;10389733;23;20467;-60
2022/12/23 15:33:17;;;;;;;15.35;7.88;;;;;;;;;;10368674;28;20072;-60
2022/12/23 15:38:19;;;;;;;10.27;7.53;;;;;;;;;;10329454;28;20042;-61
2022/12/23 15:43:22;;;;;;;15.85;7.80;;;;;;;;;;10324257;28;20053;-61
2022/12/23 15:48:24;;;;;;;14.95;9.75;;;;;;;;;;10327205;28;20076;-61
2022/12/23 15:53:29;;;;;;;14.25;8.95;;;;;;;;;;10326800;28;20541;-61
2022/12/23 15:58:31;;;;;;;14.52;8.50;;;;;;;;;;10317841;28;20042;-61
2022/12/23 16:03:37;;;;;;;11.77;8.23;;;;;;;;;;10316097;28;20049;-61
2022/12/23 16:08:37;;;;;;;14.55;8.43;;;;;;;;;;10316093;28;20649;-61
2022/12/23 16:13:38;;;;;;;19.07;8.47;;;;;;;;;;10323646;28;20140;-61
2022/12/23 16:18:41;;;;;;;25.42;9.63;;;;;;;;;;10321114;28;20463;-62
2022/12/23 16:23:47;;;;;;;16.88;9.27;;;;;;;;;;10321668;28;20168;-62
2022/12/23 16:28:49;;;;;;;10.75;8.07;;;;;;;;;;10322387;28;20101;-62
2022/12/23 16:33:52;;;;;;;17.92;8.02;;;;;;;;;;10315500;28;20541;-62
2022/12/23 16:38:52;;;;;;;14.48;8.90;;;;;;;;;;10318828;28;20037;-62
2022/12/23 16:43:52;;;;;;;17.50;8.93;;;;;;;;;;10320750;28;20030;-62
2022/12/23 16:48:54;;;;;;;18.15;9.30;;;;;;;;;;10309889;28;20061;-62
2022/12/23 16:53:56;;;;;;;15.75;9.68;;;;;;;;;;10323388;28;20129;-62
2022/12/23 16:58:56;;;;;;;19.10;9.43;;;;;;;;;;10322334;28;20312;-61
2022/12/23 17:03:56;;;;;;;21.40;9.90;;;;;;;;;;10320037;28;20281;-62
2022/12/23 17:08:57;;;;;;;15.63;9.40;;;;;;;;;;10316937;28;20043;-62
2022/12/23 17:13:57;;;;;;;14.73;8.77;;;;;;;;;;10313419;28;20383;-62
2022/12/23 17:18:58;;;;;;;11.77;8.68;;;;;;;;;;10309455;28;20037;-62
2022/12/23 17:24:04;;;;;;;17.60;9.90;;;;;;;;;;10319195;28;20026;-61
2022/12/23 17:29:04;;;;;;;14.63;9.52;;;;;;;;;;10322382;28;20096;-61
2022/12/23 17:34:10;;;;;;;15.20;9.40;;;;;;;;;;10319094;28;20037;-61
2022/12/23 17:39:10;;;;;;;19.95;9.90;;;;;;;;;;10320114;28;20460;-62
2022/12/23 17:44:12;;;;;;;15.17;9.57;;;;;;;;;;10322871;28;20030;-61
2022/12/23 17:49:13;;;;;;;13.18;9.02;;;;;;;;;;10322605;28;20041;-62
2022/12/23 17:54:20;;;;;;;15.00;9.40;;;;;;;;;;10322876;28;20474;-62
2022/12/23 17:59:20;;;;;;;16.55;10.20;;;;;;;;;;10322307;28;20022;-62
2022/12/23 18:04:20;;;;;;;15.97;10.20;;;;;;;;;;10308036;28;20031;-62
2022/12/23 18:09:22;;;;;;;18.80;10.30;;;;;;;;;;10307568;28;21225;-62
2022/12/23 18:14:26;;;;;;;15.57;9.88;;;;;;;;;;10318565;28;20048;-59
2022/12/23 18:19:26;;;;;;;17.98;10.48;;;;;;;;;;10310168;28;20030;-61
2022/12/23 18:24:26;;;;;;;16.55;10.10;;;;;;;;;;10303442;28;20026;-62
2022/12/23 18:29:27;;;;;;;17.80;11.05;;;;;;;;;;10301024;28;20530;-62
2022/12/23 18:34:27;;;;;;;20.40;11.03;;;;;;;;;;10311072;28;20039;-61
2022/12/23 18:39:27;;;;;;;15.43;10.43;;;;;;;;;;10297663;28;20038;-61
2022/12/23 18:44:28;;;;;;;18.25;10.88;;;;;;;;;;10304747;28;20027;-61
2022/12/23 18:49:28;;;;;;;17.35;11.45;;;;;;;;;;10315659;28;20654;-61
2022/12/23 18:54:28;;;;;;;20.90;10.68;;;;;;;;;;10318652;28;20148;-60
2022/12/23 18:59:30;;;;;;;20.73;11.80;;;;;;;;;;10317546;28;20088;-60
2022/12/23 19:04:30;;;;;;;16.35;10.68;;;;;;;;;;10322737;28;20022;-60
2022/12/23 19:09:30;;;;;;;18.80;11.77;;;;;;;;;;10309848;28;20448;-60
2022/12/23 19:14:31;;;;;;;18.20;11.75;;;;;;;;;;10322649;28;20127;-59
2022/12/23 19:19:31;;;;;;;21.00;11.95;;;;;;;;;;10319256;28;20034;-60
2022/12/23 19:24:31;;;;;;;14.63;11.30;;;;;;;;;;10320026;28;20121;-60
2022/12/23 19:29:32;;;;;;;17.60;11.38;;;;;;;;;;10320661;28;20137;-61
2022/12/23 19:34:32;;;;;;;17.60;10.52;;;;;;;;;;10324099;28;20091;-60
2022/12/23 19:39:32;;;;;;;22.70;11.77;;;;;;;;;;10320305;28;20037;-60
2022/12/23 19:44:32;;;;;;;21.67;12.13;;;;;;;;;;10326456;28;20034;-62
2022/12/23 19:49:33;;;;;;;21.42;11.25;;;;;;;;;;10324222;28;20033;-61
2022/12/23 19:54:33;;;;;;;28.07;12.07;;;;;;;;;;10324159;28;20026;-60
2022/12/23 19:59:33;;;;;;;24.80;13.38;;;;;;;;;;10328588;28;20548;-61
2022/12/23 20:04:34;;;;;;;24.63;12.15;;;;;;;;;;10325683;28;20089;-61
2022/12/23 20:09:34;;;;;;;20.17;11.30;;;;;;;;;;10323174;28;20034;-61
2022/12/23 20:14:34;;;;;;;21.35;11.90;;;;;;;;;;10322272;28;20030;-61
2022/12/23 20:19:34;;;;;;;18.63;11.73;;;;;;;;;;10321215;28;20482;-60
2022/12/23 20:24:35;;;;;;;26.45;12.90;;;;;;;;;;10322567;28;20403;-60
2022/12/23 20:29:35;;;;;;;21.80;12.18;;;;;;;;;;10323832;28;20054;-60
2022/12/23 20:34:36;;;;;;;20.58;12.23;;;;;;;;;;10321540;28;20493;-60
2022/12/23 20:39:36;;;;;;;18.85;11.48;;;;;;;;;;10314114;28;20066;-61
2022/12/23 20:44:36;;;;;;;20.00;12.20;;;;;;;;;;10298339;28;20485;-61
2022/12/23 20:49:36;;;;;;;19.87;11.67;;;;;;;;;;10308700;28;20470;-61
2022/12/23 20:54:37;;;;;;;27.90;12.45;;;;;;;;;;10319892;28;20110;-61
2022/12/23 20:59:37;;;;;;;20.77;12.30;;;;;;;;;;10323462;28;20037;-61
2022/12/23 21:04:37;;;;;;;22.00;12.73;;;;;;;;;;10323720;28;20037;-61
2022/12/23 21:09:38;;;;;;;29.33;12.20;;;;;;;;;;10320780;28;20029;-61
2022/12/23 21:14:38;;;;;;;19.90;12.50;;;;;;;;;;10314058;28;20471;-60
2022/12/23 21:19:38;;;;;;;21.88;12.25;;;;;;;;;;10321879;28;20034;-61
2022/12/23 21:24:39;;;;;;;20.08;12.13;;;;;;;;;;10319842;28;20109;-61
2022/12/23 21:29:39;;;;;;;18.00;11.97;;;;;;;;;;10319650;28;20576;-60
2022/12/23 21:34:39;;;;;;;19.13;12.48;;;;;;;;;;10321483;28;20068;-60
2022/12/23 21:39:40;;;;;;;19.75;12.00;;;;;;;;;;10322432;28;20030;-60
2022/12/23 21:44:40;;;;;;;21.57;12.03;;;;;;;;;;10318621;28;20022;-60
2022/12/23 21:49:42;;;;;;;19.05;11.98;;;;;;;;;;10316074;28;20030;-60
2022/12/23 21:54:42;;;;;;;24.92;12.43;;;;;;;;;;10322268;28;20146;-60
2022/12/23 21:59:43;;;;;;;20.50;11.82;;;;;;;;;;10324014;28;20034;-60
2022/12/23 22:04:43;;;;;;;21.00;12.40;;;;;;;;;;10313454;28;20023;-60
2022/12/23 22:09:43;;;;;;;24.63;12.17;;;;;;;;;;10313700;28;20027;-61
2022/12/23 22:14:44;;;;;;;30.57;11.97;;;;;;;;;;10305014;28;20019;-60
2022/12/23 22:19:44;;;;;;;28.08;12.65;;;;;;;;;;10308631;28;20472;-60
2022/12/23 22:24:44;;;;;;;19.20;12.05;;;;;;;;;;10304778;28;20029;-61
2022/12/23 22:29:45;;;;;;;23.38;11.90;;;;;;;;;;10317684;28;20134;-60
2022/12/23 22:34:45;;;;;;;23.80;11.53;;;;;;;;;;10327242;28;20026;-59
2022/12/23 22:39:45;;;;;;;26.13;11.65;;;;;;;;;;10320687;28;20046;-60
2022/12/23 22:44:46;;;;;;;18.90;10.75;;;;;;;;;;10302595;28;20038;-61
2022/12/23 22:49:46;;;;;;;19.10;11.15;;;;;;;;;;10304786;28;20037;-60
2022/12/23 22:54:46;;;;;;;23.38;9.98;;;;;;;;;;10313647;28;20035;-61
2022/12/23 22:59:47;;;;;;;19.95;11.10;;;;;;;;;;10319735;28;20061;-60
2022/12/23 23:04:47;;;;;;;19.05;10.63;;;;;;;;;;10316279;28;20026;-61
2022/12/23 23:09:47;;;;;;;21.77;10.80;;;;;;;;;;10325573;28;20578;-61
2022/12/23 23:14:53;;;;;;;19.63;9.98;;;;;;;;;;10314962;28;20031;-61
2022/12/23 23:19:53;;;;;;;17.63;9.82;;;;;;;;;;10317539;28;20034;-62
2022/12/23 23:24:54;;;;;;;14.20;9.43;;;;;;;;;;10323098;28;20394;-60
2022/12/23 23:29:54;;;;;;;25.00;9.70;;;;;;;;;;10323232;28;20403;-61
2022/12/23 23:34:54;;;;;;;18.83;9.63;;;;;;;;;;10321630;28;20069;-60
2022/12/23 23:39:55;;;;;;;18.75;9.93;;;;;;;;;;10321778;28;20262;-61
2022/12/23 23:44:55;;;;;;;21.77;9.95;;;;;;;;;;10319551;28;20457;-61
2022/12/23 23:49:55;;;;;;;13.13;8.82;;;;;;;;;;10317822;28;20182;-62
2022/12/23 23:54:55;;;;;;;14.40;9.45;;;;;;;;;;10324989;28;20034;-60
2022/12/23 23:59:56;;;;;;;17.42;9.20;;;;;;;;;;10323980;28;20026;-60
